Volente, Texas
Current Conditions -  °F | °C
As of 1:35 AM on Saturday 25 Oct 2014 (Local Time) from KRYW Reporting Station
Clear Clear  
Wind Chill: 69°   Ceiling: Unl
Heat Index: 69°   Visibility: 10mi
Dew Point: 58°   Wind: 7mph
Humidity: 68%   Direction: 170°S
Pressure: 30.16"   Gusts: NA
Location:  30.558°N, 97.9247°W
Report Text: KRYW 250635Z AUTO 17006KT 10SM CLR 21/14 A3016 RMK AO2 T02050143
Loading
Personal Weather Stations






























Interactive Weather Map
Tropical Storm Tracking
New forecast layout! Learn more

10-Day Weather Forecast

Advertisements
Track Severe Weather on mobile